JST7529 YSSY-YMML
Flight info
| Callsign | JST7529 |
|---|---|
| Flight time | 1h 5m |
| Altitude | 36000 |
| Route | TESAT H65 LEECE Q29 ML |
| Aircraft | A320/M-SDE3FGHIRWY/LB1 |
Departure
| Time | 2026-04-20 13:20 |
|---|---|
| Airport | Sydney Kingsford Smith International Airport (YSSY) |
Arrival
| Time | 2026-04-20 14:26 |
|---|---|
| Airport | Melbourne Airport (YMML) |
| Time | Latitude | Longitude | Altitude | Speed | Heading |
|---|---|---|---|---|---|
| 2026-04-20 12:43 | -33.93563 | 151.17760 | 30 ft | 0 kts | 281° |
| 2026-04-20 13:12 | -33.93563 | 151.17761 | 30 ft | 2 kts | 281° |
| 2026-04-20 13:12 | -33.93569 | 151.17790 | 30 ft | 4 kts | 283° |
| 2026-04-20 13:12 | -33.93573 | 151.17820 | 30 ft | 4 kts | 250° |
| 2026-04-20 13:12 | -33.93570 | 151.17829 | 30 ft | 3 kts | 190° |
| 2026-04-20 13:13 | -33.93596 | 151.17823 | 30 ft | 4 kts | 190° |
| 2026-04-20 13:13 | -33.93611 | 151.17820 | 30 ft | 0 kts | 191° |
| 2026-04-20 13:16 | -33.93632 | 151.17815 | 30 ft | 6 kts | 191° |
| 2026-04-20 13:16 | -33.93688 | 151.17800 | 30 ft | 11 kts | 193° |
| 2026-04-20 13:16 | -33.93775 | 151.17774 | 30 ft | 15 kts | 194° |
| 2026-04-20 13:16 | -33.93859 | 151.17706 | 29 ft | 15 kts | 252° |
| 2026-04-20 13:17 | -33.93841 | 151.17594 | 29 ft | 14 kts | 337° |
| 2026-04-20 13:17 | -33.93743 | 151.17572 | 29 ft | 16 kts | 348° |
| 2026-04-20 13:17 | -33.93623 | 151.17539 | 29 ft | 19 kts | 347° |
| 2026-04-20 13:17 | -33.93525 | 151.17518 | 29 ft | 9 kts | 351° |
| 2026-04-20 13:18 | -33.93485 | 151.17497 | 29 ft | 7 kts | 320° |
| 2026-04-20 13:18 | -33.93435 | 151.17495 | 30 ft | 8 kts | 9° |
| 2026-04-20 13:18 | -33.93386 | 151.17465 | 30 ft | 9 kts | 288° |
| 2026-04-20 13:18 | -33.93397 | 151.17377 | 29 ft | 14 kts | 257° |
| 2026-04-20 13:19 | -33.93468 | 151.17298 | 27 ft | 17 kts | 172° |
| 2026-04-20 13:19 | -33.93613 | 151.17335 | 27 ft | 32 kts | 168° |
| 2026-04-20 13:19 | -33.94074 | 151.17455 | 26 ft | 102 kts | 168° |
| 2026-04-20 13:19 | -33.94937 | 151.17674 | 30 ft | 152 kts | 166° |
| 2026-04-20 13:20 | -33.96033 | 151.18014 | 427 ft | 167 kts | 172° |
| 2026-04-20 13:20 | -33.97193 | 151.18120 | 1160 ft | 169 kts | 182° |
| 2026-04-20 13:20 | -33.98365 | 151.17952 | 1866 ft | 174 kts | 185° |
| 2026-04-20 13:20 | -33.99641 | 151.17782 | 2233 ft | 197 kts | 184° |
| 2026-04-20 13:21 | -34.01091 | 151.17650 | 2700 ft | 221 kts | 183° |
| 2026-04-20 13:21 | -34.02685 | 151.17584 | 3382 ft | 236 kts | 175° |
| 2026-04-20 13:21 | -34.04404 | 151.17629 | 3967 ft | 262 kts | 189° |
| 2026-04-20 13:21 | -34.06191 | 151.16788 | 4427 ft | 290 kts | 206° |
| 2026-04-20 13:22 | -34.07920 | 151.15475 | 5098 ft | 304 kts | 212° |
| 2026-04-20 13:22 | -34.09659 | 151.13977 | 5970 ft | 309 kts | 213° |
| 2026-04-20 13:22 | -34.11420 | 151.12451 | 6863 ft | 314 kts | 212° |
| 2026-04-20 13:22 | -34.13215 | 151.10958 | 7767 ft | 315 kts | 211° |
| 2026-04-20 13:23 | -34.15062 | 151.09498 | 8599 ft | 319 kts | 210° |
| 2026-04-20 13:23 | -34.16954 | 151.08054 | 9401 ft | 325 kts | 208° |
| 2026-04-20 13:23 | -34.18893 | 151.06609 | 10192 ft | 330 kts | 208° |
| 2026-04-20 13:23 | -34.20868 | 151.05151 | 10921 ft | 334 kts | 208° |
| 2026-04-20 13:24 | -34.22867 | 151.03679 | 11624 ft | 338 kts | 209° |
| 2026-04-20 13:24 | -34.24863 | 151.02208 | 12311 ft | 343 kts | 209° |
| 2026-04-20 13:24 | -34.26909 | 151.00693 | 13033 ft | 347 kts | 209° |
| 2026-04-20 13:24 | -34.28972 | 150.99160 | 13756 ft | 350 kts | 210° |
| 2026-04-20 13:25 | -34.31057 | 150.97609 | 14441 ft | 354 kts | 210° |
| 2026-04-20 13:25 | -34.33159 | 150.96042 | 15093 ft | 357 kts | 210° |
| 2026-04-20 13:25 | -34.35280 | 150.94454 | 15754 ft | 359 kts | 210° |
| 2026-04-20 13:25 | -34.37407 | 150.92857 | 16402 ft | 361 kts | 210° |
| 2026-04-20 13:26 | -34.39551 | 150.91252 | 17047 ft | 364 kts | 209° |
| 2026-04-20 13:26 | -34.41713 | 150.89637 | 17698 ft | 366 kts | 209° |
| 2026-04-20 13:26 | -34.43883 | 150.88013 | 18353 ft | 368 kts | 209° |
| 2026-04-20 13:26 | -34.46071 | 150.86378 | 18971 ft | 371 kts | 209° |
| 2026-04-20 13:27 | -34.48278 | 150.84730 | 19544 ft | 374 kts | 209° |
| 2026-04-20 13:27 | -34.50470 | 150.83087 | 20108 ft | 377 kts | 209° |
| 2026-04-20 13:27 | -34.52710 | 150.81410 | 20691 ft | 380 kts | 209° |
| 2026-04-20 13:27 | -34.54904 | 150.79595 | 21230 ft | 385 kts | 216° |
| 2026-04-20 13:28 | -34.56836 | 150.77314 | 21745 ft | 392 kts | 226° |
| 2026-04-20 13:28 | -34.58491 | 150.74651 | 22242 ft | 397 kts | 230° |
| 2026-04-20 13:28 | -34.60119 | 150.71939 | 22769 ft | 399 kts | 230° |
| 2026-04-20 13:28 | -34.61760 | 150.69213 | 23254 ft | 401 kts | 230° |
| 2026-04-20 13:29 | -34.63417 | 150.66470 | 23740 ft | 404 kts | 230° |
| 2026-04-20 13:29 | -34.65086 | 150.63707 | 24181 ft | 407 kts | 230° |
| 2026-04-20 13:29 | -34.66737 | 150.60968 | 24593 ft | 409 kts | 230° |
| 2026-04-20 13:29 | -34.68417 | 150.58173 | 25015 ft | 410 kts | 230° |
| 2026-04-20 13:30 | -34.70102 | 150.55367 | 25426 ft | 412 kts | 229° |
| 2026-04-20 13:30 | -34.71796 | 150.52548 | 25840 ft | 414 kts | 229° |
| 2026-04-20 13:30 | -34.73496 | 150.49720 | 26273 ft | 415 kts | 229° |
| 2026-04-20 13:30 | -34.75200 | 150.46877 | 26690 ft | 417 kts | 229° |
| 2026-04-20 13:31 | -34.76911 | 150.44013 | 27069 ft | 419 kts | 229° |
| 2026-04-20 13:31 | -34.78628 | 150.41136 | 27509 ft | 421 kts | 229° |
| 2026-04-20 13:31 | -34.80351 | 150.38247 | 27953 ft | 423 kts | 229° |
| 2026-04-20 13:31 | -34.82089 | 150.35341 | 28359 ft | 425 kts | 229° |
| 2026-04-20 13:32 | -34.83826 | 150.32431 | 28750 ft | 427 kts | 229° |
| 2026-04-20 13:32 | -34.85553 | 150.29538 | 29148 ft | 429 kts | 229° |
| 2026-04-20 13:32 | -34.87309 | 150.26593 | 29525 ft | 431 kts | 229° |
| 2026-04-20 13:32 | -34.89073 | 150.23631 | 29929 ft | 433 kts | 229° |
| 2026-04-20 13:33 | -34.90836 | 150.20667 | 30517 ft | 430 kts | 229° |
| 2026-04-20 13:33 | -34.92584 | 150.17722 | 31024 ft | 428 kts | 229° |
| 2026-04-20 13:33 | -34.94322 | 150.14788 | 31517 ft | 426 kts | 229° |
| 2026-04-20 13:33 | -34.96054 | 150.11870 | 32008 ft | 424 kts | 229° |
| 2026-04-20 13:34 | -34.97779 | 150.08963 | 32504 ft | 422 kts | 229° |
| 2026-04-20 13:34 | -34.99497 | 150.06066 | 33014 ft | 420 kts | 229° |
| 2026-04-20 13:34 | -35.01180 | 150.03222 | 33526 ft | 419 kts | 229° |
| 2026-04-20 13:34 | -35.02879 | 150.00346 | 34040 ft | 417 kts | 229° |
| 2026-04-20 13:35 | -35.04573 | 149.97480 | 34535 ft | 415 kts | 229° |
| 2026-04-20 13:35 | -35.06255 | 149.94630 | 34970 ft | 413 kts | 229° |
| 2026-04-20 13:35 | -35.07932 | 149.91786 | 35417 ft | 412 kts | 229° |
| 2026-04-20 13:35 | -35.09599 | 149.88958 | 35847 ft | 410 kts | 229° |
| 2026-04-20 13:36 | -35.11264 | 149.86133 | 36248 ft | 409 kts | 229° |
| 2026-04-20 13:36 | -35.12917 | 149.83321 | 36666 ft | 407 kts | 230° |
| 2026-04-20 13:36 | -35.14565 | 149.80512 | 37071 ft | 405 kts | 230° |
| 2026-04-20 13:36 | -35.16182 | 149.77753 | 37484 ft | 404 kts | 230° |
| 2026-04-20 13:37 | -35.17816 | 149.74968 | 37878 ft | 402 kts | 230° |
| 2026-04-20 13:37 | -35.19444 | 149.72197 | 38255 ft | 401 kts | 230° |
| 2026-04-20 13:37 | -35.21075 | 149.69425 | 38411 ft | 401 kts | 230° |
| 2026-04-20 13:38 | -35.24323 | 149.63887 | 38430 ft | 400 kts | 230° |
| 2026-04-20 13:38 | -35.27557 | 149.58353 | 38427 ft | 400 kts | 230° |
| 2026-04-20 13:39 | -35.30766 | 149.52851 | 38427 ft | 400 kts | 230° |
| 2026-04-20 13:39 | -35.34000 | 149.47304 | 38423 ft | 400 kts | 230° |
| 2026-04-20 13:40 | -35.37231 | 149.41756 | 38424 ft | 400 kts | 230° |
| 2026-04-20 13:40 | -35.40461 | 149.36195 | 38423 ft | 401 kts | 230° |
| 2026-04-20 13:41 | -35.43664 | 149.30665 | 38422 ft | 400 kts | 230° |
| 2026-04-20 13:41 | -35.46885 | 149.25094 | 38424 ft | 400 kts | 230° |
| 2026-04-20 13:42 | -35.50111 | 149.19524 | 38428 ft | 400 kts | 230° |
| 2026-04-20 13:42 | -35.54948 | 149.11153 | 38442 ft | 401 kts | 230° |
| 2026-04-20 13:43 | -35.58141 | 149.05595 | 38463 ft | 401 kts | 231° |
| 2026-04-20 13:43 | -35.61356 | 148.99994 | 38446 ft | 401 kts | 231° |
| 2026-04-20 13:44 | -35.64578 | 148.94396 | 38451 ft | 401 kts | 231° |
| 2026-04-20 13:44 | -35.67794 | 148.88781 | 38449 ft | 401 kts | 231° |
| 2026-04-20 13:45 | -35.70983 | 148.83198 | 38452 ft | 402 kts | 231° |
| 2026-04-20 13:45 | -35.74197 | 148.77570 | 38448 ft | 402 kts | 231° |
| 2026-04-20 13:46 | -35.77409 | 148.71943 | 38434 ft | 402 kts | 231° |
| 2026-04-20 13:46 | -35.80615 | 148.66306 | 38437 ft | 401 kts | 231° |
| 2026-04-20 13:47 | -35.83799 | 148.60710 | 38435 ft | 402 kts | 231° |
| 2026-04-20 13:47 | -35.86998 | 148.55071 | 38430 ft | 402 kts | 231° |
| 2026-04-20 13:48 | -35.90196 | 148.49420 | 38437 ft | 402 kts | 231° |
| 2026-04-20 13:48 | -35.93383 | 148.43759 | 38414 ft | 402 kts | 232° |
| 2026-04-20 13:49 | -35.96552 | 148.38128 | 38426 ft | 403 kts | 232° |
| 2026-04-20 13:49 | -35.99735 | 148.32453 | 38420 ft | 402 kts | 232° |
| 2026-04-20 13:50 | -36.02929 | 148.26764 | 38420 ft | 403 kts | 232° |
| 2026-04-20 13:50 | -36.06112 | 148.21076 | 38408 ft | 402 kts | 232° |
| 2026-04-20 13:51 | -36.09271 | 148.15414 | 38395 ft | 403 kts | 232° |
| 2026-04-20 13:51 | -36.12452 | 148.09707 | 38399 ft | 403 kts | 232° |
| 2026-04-20 13:52 | -36.15644 | 148.04002 | 38398 ft | 403 kts | 232° |
| 2026-04-20 13:52 | -36.18839 | 147.98300 | 38404 ft | 403 kts | 232° |
| 2026-04-20 13:53 | -36.22010 | 147.92617 | 38404 ft | 404 kts | 232° |
| 2026-04-20 13:53 | -36.25198 | 147.86897 | 38392 ft | 404 kts | 232° |
| 2026-04-20 13:54 | -36.28388 | 147.81161 | 38405 ft | 404 kts | 232° |
| 2026-04-20 13:54 | -36.31571 | 147.75408 | 38409 ft | 405 kts | 233° |
| 2026-04-20 13:55 | -36.34737 | 147.69683 | 38408 ft | 405 kts | 233° |
| 2026-04-20 13:55 | -36.37916 | 147.63922 | 38393 ft | 405 kts | 233° |
| 2026-04-20 13:56 | -36.41098 | 147.58150 | 38404 ft | 405 kts | 233° |
| 2026-04-20 13:56 | -36.44275 | 147.52367 | 38413 ft | 406 kts | 233° |
| 2026-04-20 13:57 | -36.47456 | 147.46573 | 38404 ft | 406 kts | 233° |
| 2026-04-20 13:57 | -36.50606 | 147.40814 | 38415 ft | 406 kts | 233° |
| 2026-04-20 13:58 | -36.53783 | 147.35009 | 38402 ft | 406 kts | 233° |
| 2026-04-20 13:58 | -36.56957 | 147.29193 | 38404 ft | 407 kts | 233° |
| 2026-04-20 13:59 | -36.60126 | 147.23364 | 38403 ft | 406 kts | 233° |
| 2026-04-20 13:59 | -36.63280 | 147.17583 | 38401 ft | 406 kts | 233° |
| 2026-04-20 14:00 | -36.66453 | 147.11754 | 38399 ft | 406 kts | 233° |
| 2026-04-20 14:00 | -36.69609 | 147.05923 | 38401 ft | 407 kts | 234° |
| 2026-04-20 14:01 | -36.72779 | 147.00076 | 38402 ft | 407 kts | 234° |
| 2026-04-20 14:01 | -36.75941 | 146.94222 | 38403 ft | 407 kts | 234° |
| 2026-04-20 14:02 | -36.79080 | 146.88399 | 38407 ft | 407 kts | 234° |
| 2026-04-20 14:02 | -36.82231 | 146.82535 | 38390 ft | 407 kts | 234° |
| 2026-04-20 14:03 | -36.85382 | 146.76671 | 38408 ft | 407 kts | 234° |
| 2026-04-20 14:03 | -36.88536 | 146.70802 | 38401 ft | 407 kts | 234° |
| 2026-04-20 14:04 | -36.91688 | 146.64927 | 38406 ft | 407 kts | 234° |
| 2026-04-20 14:04 | -36.94812 | 146.59087 | 38400 ft | 407 kts | 234° |
| 2026-04-20 14:05 | -36.97947 | 146.53198 | 38400 ft | 407 kts | 234° |
| 2026-04-20 14:05 | -37.01086 | 146.47313 | 38369 ft | 407 kts | 234° |
| 2026-04-20 14:06 | -37.02665 | 146.44355 | 37583 ft | 408 kts | 234° |
| 2026-04-20 14:06 | -37.04237 | 146.41405 | 36790 ft | 408 kts | 234° |
| 2026-04-20 14:06 | -37.05812 | 146.38440 | 36045 ft | 410 kts | 234° |
| 2026-04-20 14:06 | -37.07369 | 146.35505 | 35312 ft | 412 kts | 234° |
| 2026-04-20 14:07 | -37.08957 | 146.32502 | 34598 ft | 414 kts | 234° |
| 2026-04-20 14:07 | -37.10550 | 146.29484 | 33795 ft | 419 kts | 234° |
| 2026-04-20 14:07 | -37.12166 | 146.26427 | 33000 ft | 421 kts | 234° |
| 2026-04-20 14:07 | -37.13790 | 146.23356 | 32226 ft | 424 kts | 234° |
| 2026-04-20 14:08 | -37.15421 | 146.20268 | 31468 ft | 427 kts | 234° |
| 2026-04-20 14:08 | -37.17067 | 146.17157 | 30745 ft | 430 kts | 234° |
| 2026-04-20 14:08 | -37.18724 | 146.14019 | 29962 ft | 433 kts | 234° |
| 2026-04-20 14:08 | -37.20391 | 146.10858 | 29134 ft | 436 kts | 234° |
| 2026-04-20 14:09 | -37.22043 | 146.07716 | 28306 ft | 439 kts | 234° |
| 2026-04-20 14:09 | -37.23733 | 146.04505 | 27462 ft | 440 kts | 234° |
| 2026-04-20 14:09 | -37.25410 | 146.01317 | 26671 ft | 437 kts | 234° |
| 2026-04-20 14:09 | -37.27080 | 145.98141 | 25888 ft | 434 kts | 234° |
| 2026-04-20 14:10 | -37.28737 | 145.94986 | 25127 ft | 432 kts | 234° |
| 2026-04-20 14:10 | -37.30381 | 145.91849 | 24387 ft | 429 kts | 234° |
| 2026-04-20 14:10 | -37.32018 | 145.88724 | 23621 ft | 426 kts | 234° |
| 2026-04-20 14:10 | -37.33644 | 145.85627 | 22753 ft | 423 kts | 235° |
| 2026-04-20 14:11 | -37.35238 | 145.82588 | 21940 ft | 421 kts | 235° |
| 2026-04-20 14:11 | -37.36841 | 145.79526 | 21138 ft | 417 kts | 235° |
| 2026-04-20 14:11 | -37.38422 | 145.76496 | 20378 ft | 413 kts | 235° |
| 2026-04-20 14:11 | -37.39986 | 145.73505 | 19634 ft | 405 kts | 235° |
| 2026-04-20 14:12 | -37.41522 | 145.70570 | 18915 ft | 399 kts | 235° |
| 2026-04-20 14:12 | -37.43035 | 145.67668 | 18128 ft | 395 kts | 237° |
| 2026-04-20 14:12 | -37.44229 | 145.64564 | 17320 ft | 393 kts | 249° |
| 2026-04-20 14:12 | -37.44876 | 145.61248 | 16543 ft | 391 kts | 261° |
| 2026-04-20 14:13 | -37.44996 | 145.57834 | 15779 ft | 391 kts | 269° |
| 2026-04-20 14:13 | -37.44956 | 145.54461 | 15036 ft | 391 kts | 269° |
| 2026-04-20 14:13 | -37.44918 | 145.51053 | 14301 ft | 387 kts | 269° |
| 2026-04-20 14:13 | -37.44881 | 145.47719 | 13507 ft | 377 kts | 269° |
| 2026-04-20 14:14 | -37.44845 | 145.44453 | 12716 ft | 371 kts | 269° |
| 2026-04-20 14:14 | -37.44810 | 145.41247 | 11931 ft | 358 kts | 270° |
| 2026-04-20 14:14 | -37.44775 | 145.38177 | 11188 ft | 344 kts | 270° |
| 2026-04-20 14:14 | -37.44739 | 145.35221 | 10453 ft | 333 kts | 270° |
| 2026-04-20 14:15 | -37.44702 | 145.32347 | 9661 ft | 324 kts | 270° |
| 2026-04-20 14:15 | -37.44667 | 145.29542 | 8880 ft | 319 kts | 271° |
| 2026-04-20 14:15 | -37.44633 | 145.26826 | 8461 ft | 304 kts | 271° |
| 2026-04-20 14:15 | -37.44601 | 145.24274 | 8334 ft | 282 kts | 271° |
| 2026-04-20 14:16 | -37.44570 | 145.21817 | 8213 ft | 279 kts | 271° |
| 2026-04-20 14:16 | -37.44538 | 145.19379 | 8089 ft | 278 kts | 272° |
| 2026-04-20 14:16 | -37.44502 | 145.16949 | 7965 ft | 277 kts | 271° |
| 2026-04-20 14:16 | -37.44469 | 145.14520 | 7847 ft | 278 kts | 271° |
| 2026-04-20 14:17 | -37.44432 | 145.12095 | 7720 ft | 277 kts | 272° |
| 2026-04-20 14:17 | -37.44395 | 145.09667 | 7582 ft | 278 kts | 272° |
| 2026-04-20 14:17 | -37.44357 | 145.07217 | 7144 ft | 282 kts | 272° |
| 2026-04-20 14:17 | -37.44321 | 145.04781 | 6974 ft | 271 kts | 272° |
| 2026-04-20 14:18 | -37.44289 | 145.02498 | 6811 ft | 260 kts | 272° |
| 2026-04-20 14:18 | -37.44257 | 145.00242 | 6636 ft | 255 kts | 271° |
| 2026-04-20 14:18 | -37.44223 | 144.98035 | 6464 ft | 251 kts | 271° |
| 2026-04-20 14:18 | -37.44190 | 144.95845 | 6199 ft | 249 kts | 271° |
| 2026-04-20 14:19 | -37.44253 | 144.93681 | 5881 ft | 249 kts | 262° |
| 2026-04-20 14:19 | -37.44554 | 144.91490 | 5388 ft | 254 kts | 261° |
| 2026-04-20 14:19 | -37.44865 | 144.89313 | 4812 ft | 254 kts | 261° |
| 2026-04-20 14:19 | -37.45174 | 144.87148 | 4415 ft | 246 kts | 261° |
| 2026-04-20 14:20 | -37.45463 | 144.85107 | 4249 ft | 228 kts | 261° |
| 2026-04-20 14:20 | -37.45727 | 144.83235 | 4137 ft | 212 kts | 261° |
| 2026-04-20 14:20 | -37.46071 | 144.81498 | 4037 ft | 201 kts | 242° |
| 2026-04-20 14:20 | -37.47083 | 144.80348 | 3951 ft | 199 kts | 198° |
| 2026-04-20 14:21 | -37.48448 | 144.80333 | 3764 ft | 198 kts | 170° |
| 2026-04-20 14:21 | -37.49813 | 144.80603 | 3517 ft | 199 kts | 171° |
| 2026-04-20 14:21 | -37.51177 | 144.80856 | 3256 ft | 198 kts | 171° |
| 2026-04-20 14:21 | -37.52537 | 144.81108 | 3005 ft | 197 kts | 170° |
| 2026-04-20 14:22 | -37.53859 | 144.81356 | 2765 ft | 185 kts | 170° |
| 2026-04-20 14:22 | -37.55079 | 144.81584 | 2504 ft | 174 kts | 170° |
| 2026-04-20 14:22 | -37.56219 | 144.81795 | 2290 ft | 157 kts | 169° |
| 2026-04-20 14:22 | -37.57241 | 144.81984 | 2084 ft | 143 kts | 169° |
| 2026-04-20 14:23 | -37.58200 | 144.82163 | 1889 ft | 137 kts | 169° |
| 2026-04-20 14:23 | -37.59144 | 144.82339 | 1712 ft | 137 kts | 170° |
| 2026-04-20 14:23 | -37.60084 | 144.82515 | 1531 ft | 137 kts | 170° |
| 2026-04-20 14:23 | -37.61023 | 144.82691 | 1332 ft | 137 kts | 171° |
| 2026-04-20 14:24 | -37.61968 | 144.82867 | 1145 ft | 137 kts | 173° |
| 2026-04-20 14:24 | -37.62910 | 144.83041 | 955 ft | 136 kts | 173° |
| 2026-04-20 14:24 | -37.63849 | 144.83216 | 776 ft | 137 kts | 173° |
| 2026-04-20 14:24 | -37.64775 | 144.83394 | 599 ft | 137 kts | 173° |
| 2026-04-20 14:25 | -37.65720 | 144.83570 | 433 ft | 136 kts | 173° |
| 2026-04-20 14:25 | -37.66530 | 144.83716 | 404 ft | 94 kts | 172° |
| 2026-04-20 14:25 | -37.67022 | 144.83809 | 385 ft | 58 kts | 172° |
| 2026-04-20 14:25 | -37.67411 | 144.83884 | 370 ft | 57 kts | 171° |
| 2026-04-20 14:26 | -37.67756 | 144.83950 | 359 ft | 38 kts | 173° |
| 2026-04-20 14:26 | -37.67870 | 144.84041 | 365 ft | 14 kts | 112° |
| 2026-04-20 14:26 | -37.67875 | 144.84119 | 358 ft | 6 kts | 82° |
| 2026-04-20 14:26 | -37.67873 | 144.84131 | 358 ft | 0 kts | 81° |
| 2026-04-20 14:27 | -37.67872 | 144.84141 | 366 ft | 4 kts | 81° |
| 2026-04-20 14:27 | -37.67864 | 144.84195 | 359 ft | 9 kts | 80° |
| 2026-04-20 14:28 | -37.67851 | 144.84292 | 361 ft | 13 kts | 81° |
| 2026-04-20 14:28 | -37.67837 | 144.84416 | 363 ft | 16 kts | 82° |
| 2026-04-20 14:28 | -37.67824 | 144.84534 | 365 ft | 13 kts | 81° |
| 2026-04-20 14:28 | -37.67770 | 144.84610 | 372 ft | 12 kts | 29° |
| 2026-04-20 14:29 | -37.67738 | 144.84691 | 371 ft | 11 kts | 82° |
| 2026-04-20 14:29 | -37.67726 | 144.84794 | 372 ft | 13 kts | 82° |
| 2026-04-20 14:29 | -37.67715 | 144.84819 | 373 ft | 0 kts | 30° |
| 2026-04-20 14:29 | -37.67707 | 144.84816 | 373 ft | 3 kts | 351° |
| 2026-04-20 14:30 | -37.67685 | 144.84811 | 374 ft | 4 kts | 349° |
| 2026-04-20 14:30 | -37.67658 | 144.84806 | 375 ft | 4 kts | 351° |
| 2026-04-20 14:30 | -37.67633 | 144.84800 | 376 ft | 3 kts | 351° |
| 2026-04-20 14:30 | -37.67628 | 144.84800 | 376 ft | 0 kts | 351° |